sensor_id;sensor_type;location;lat;lon;timestamp;P1;durP1;ratioP1;P2;durP2;ratioP2
29906;SDS011;16776;50.958;10.994;2023-04-28T00:00:32;2.90;;;2.15;;
29906;SDS011;16776;50.958;10.994;2023-04-28T00:02:59;2.25;;;1.77;;
29906;SDS011;16776;50.958;10.994;2023-04-28T00:05:25;2.65;;;2.05;;
29906;SDS011;16776;50.958;10.994;2023-04-28T00:07:53;2.55;;;2.20;;
29906;SDS011;16776;50.958;10.994;2023-04-28T00:10:20;2.33;;;2.13;;
29906;SDS011;16776;50.958;10.994;2023-04-28T00:12:46;1.92;;;1.75;;
29906;SDS011;16776;50.958;10.994;2023-04-28T00:15:13;2.95;;;2.10;;
29906;SDS011;16776;50.958;10.994;2023-04-28T00:17:40;3.72;;;2.03;;
29906;SDS011;16776;50.958;10.994;2023-04-28T00:20:07;4.13;;;1.98;;
29906;SDS011;16776;50.958;10.994;2023-04-28T00:22:35;2.42;;;1.90;;
29906;SDS011;16776;50.958;10.994;2023-04-28T00:25:03;3.15;;;2.22;;
29906;SDS011;16776;50.958;10.994;2023-04-28T00:27:31;2.08;;;1.88;;
29906;SDS011;16776;50.958;10.994;2023-04-28T00:29:58;2.35;;;2.03;;
29906;SDS011;16776;50.958;10.994;2023-04-28T00:32:24;2.85;;;2.40;;
29906;SDS011;16776;50.958;10.994;2023-04-28T00:34:51;2.58;;;2.33;;
29906;SDS011;16776;50.958;10.994;2023-04-28T00:37:17;2.25;;;2.10;;
29906;SDS011;16776;50.958;10.994;2023-04-28T00:39:44;2.88;;;2.30;;
29906;SDS011;16776;50.958;10.994;2023-04-28T00:42:13;2.38;;;2.03;;
29906;SDS011;16776;50.958;10.994;2023-04-28T00:44:40;4.05;;;2.25;;
29906;SDS011;16776;50.958;10.994;2023-04-28T00:47:07;3.67;;;2.40;;
29906;SDS011;16776;50.958;10.994;2023-04-28T00:49:34;2.88;;;2.42;;
29906;SDS011;16776;50.958;10.994;2023-04-28T00:52:05;2.22;;;2.00;;
29906;SDS011;16776;50.958;10.994;2023-04-28T00:54:32;3.95;;;2.38;;
29906;SDS011;16776;50.958;10.994;2023-04-28T00:56:59;3.88;;;2.28;;
29906;SDS011;16776;50.958;10.994;2023-04-28T00:59:28;2.97;;;2.33;;
29906;SDS011;16776;50.958;10.994;2023-04-28T01:01:55;3.33;;;2.33;;
29906;SDS011;16776;50.958;10.994;2023-04-28T01:04:22;2.67;;;2.22;;
29906;SDS011;16776;50.958;10.994;2023-04-28T01:06:49;4.38;;;2.53;;
29906;SDS011;16776;50.958;10.994;2023-04-28T01:09:18;4.25;;;2.80;;
29906;SDS011;16776;50.958;10.994;2023-04-28T01:11:45;4.20;;;2.63;;
29906;SDS011;16776;50.958;10.994;2023-04-28T01:14:12;2.15;;;1.95;;
29906;SDS011;16776;50.958;10.994;2023-04-28T01:16:39;2.28;;;2.08;;
29906;SDS011;16776;50.958;10.994;2023-04-28T01:19:07;2.33;;;2.13;;
29906;SDS011;16776;50.958;10.994;2023-04-28T01:21:33;4.43;;;2.75;;
29906;SDS011;16776;50.958;10.994;2023-04-28T01:24:01;3.15;;;2.25;;
29906;SDS011;16776;50.958;10.994;2023-04-28T01:26:28;3.05;;;2.17;;
29906;SDS011;16776;50.958;10.994;2023-04-28T01:28:54;2.38;;;2.17;;
29906;SDS011;16776;50.958;10.994;2023-04-28T01:31:21;5.05;;;2.08;;
29906;SDS011;16776;50.958;10.994;2023-04-28T01:33:47;3.78;;;2.60;;
29906;SDS011;16776;50.958;10.994;2023-04-28T01:36:14;3.05;;;2.50;;
29906;SDS011;16776;50.958;10.994;2023-04-28T01:38:41;3.00;;;2.47;;
29906;SDS011;16776;50.958;10.994;2023-04-28T01:41:08;2.63;;;2.10;;
29906;SDS011;16776;50.958;10.994;2023-04-28T01:43:35;3.08;;;2.40;;
29906;SDS011;16776;50.958;10.994;2023-04-28T01:46:02;3.80;;;2.28;;
29906;SDS011;16776;50.958;10.994;2023-04-28T01:48:28;3.63;;;2.75;;
29906;SDS011;16776;50.958;10.994;2023-04-28T01:50:55;2.88;;;2.13;;
29906;SDS011;16776;50.958;10.994;2023-04-28T01:53:21;3.38;;;2.70;;
29906;SDS011;16776;50.958;10.994;2023-04-28T01:55:48;2.90;;;2.35;;
29906;SDS011;16776;50.958;10.994;2023-04-28T01:58:17;2.58;;;2.33;;
29906;SDS011;16776;50.958;10.994;2023-04-28T02:00:43;3.28;;;2.20;;
29906;SDS011;16776;50.958;10.994;2023-04-28T02:03:10;4.43;;;3.28;;
29906;SDS011;16776;50.958;10.994;2023-04-28T02:05:37;4.95;;;2.45;;
29906;SDS011;16776;50.958;10.994;2023-04-28T02:08:03;4.28;;;2.38;;
29906;SDS011;16776;50.958;10.994;2023-04-28T02:10:33;3.30;;;2.67;;
29906;SDS011;16776;50.958;10.994;2023-04-28T02:13:00;2.35;;;2.00;;
29906;SDS011;16776;50.958;10.994;2023-04-28T02:15:28;3.17;;;2.38;;
29906;SDS011;16776;50.958;10.994;2023-04-28T02:17:54;2.95;;;2.67;;
29906;SDS011;16776;50.958;10.994;2023-04-28T02:20:21;5.25;;;2.97;;
29906;SDS011;16776;50.958;10.994;2023-04-28T02:22:47;2.97;;;2.35;;
29906;SDS011;16776;50.958;10.994;2023-04-28T02:25:14;2.85;;;2.58;;
29906;SDS011;16776;50.958;10.994;2023-04-28T02:27:41;3.55;;;2.58;;
29906;SDS011;16776;50.958;10.994;2023-04-28T02:30:07;3.13;;;2.83;;
29906;SDS011;16776;50.958;10.994;2023-04-28T02:32:35;2.30;;;2.10;;
29906;SDS011;16776;50.958;10.994;2023-04-28T02:35:02;3.53;;;2.85;;
29906;SDS011;16776;50.958;10.994;2023-04-28T02:37:29;2.90;;;2.40;;
29906;SDS011;16776;50.958;10.994;2023-04-28T02:39:55;4.82;;;2.83;;
29906;SDS011;16776;50.958;10.994;2023-04-28T02:42:22;3.28;;;2.90;;
29906;SDS011;16776;50.958;10.994;2023-04-28T02:44:48;2.50;;;2.30;;
29906;SDS011;16776;50.958;10.994;2023-04-28T02:47:15;3.25;;;2.88;;
29906;SDS011;16776;50.958;10.994;2023-04-28T02:49:43;3.30;;;2.63;;
29906;SDS011;16776;50.958;10.994;2023-04-28T02:52:09;3.10;;;2.45;;
29906;SDS011;16776;50.958;10.994;2023-04-28T02:54:36;3.55;;;2.60;;
29906;SDS011;16776;50.958;10.994;2023-04-28T02:57:03;2.92;;;2.60;;
29906;SDS011;16776;50.958;10.994;2023-04-28T02:59:29;3.35;;;2.38;;
29906;SDS011;16776;50.958;10.994;2023-04-28T03:01:56;3.40;;;2.40;;
29906;SDS011;16776;50.958;10.994;2023-04-28T03:04:22;2.90;;;2.35;;
29906;SDS011;16776;50.958;10.994;2023-04-28T03:06:54;4.65;;;2.40;;
29906;SDS011;16776;50.958;10.994;2023-04-28T03:09:20;3.35;;;2.38;;
29906;SDS011;16776;50.958;10.994;2023-04-28T03:11:47;3.00;;;2.70;;
29906;SDS011;16776;50.958;10.994;2023-04-28T03:14:13;3.72;;;2.50;;
29906;SDS011;16776;50.958;10.994;2023-04-28T03:16:40;2.92;;;2.58;;
29906;SDS011;16776;50.958;10.994;2023-04-28T03:19:06;4.35;;;2.92;;
29906;SDS011;16776;50.958;10.994;2023-04-28T03:21:33;3.25;;;2.72;;
29906;SDS011;16776;50.958;10.994;2023-04-28T03:24:01;4.75;;;2.40;;
29906;SDS011;16776;50.958;10.994;2023-04-28T03:26:27;4.50;;;2.85;;
29906;SDS011;16776;50.958;10.994;2023-04-28T03:28:54;2.92;;;2.60;;
29906;SDS011;16776;50.958;10.994;2023-04-28T03:31:21;3.10;;;2.80;;
29906;SDS011;16776;50.958;10.994;2023-04-28T03:33:48;4.00;;;3.00;;
29906;SDS011;16776;50.958;10.994;2023-04-28T03:36:14;2.92;;;2.40;;
29906;SDS011;16776;50.958;10.994;2023-04-28T03:38:41;3.50;;;2.45;;
29906;SDS011;16776;50.958;10.994;2023-04-28T03:41:09;3.08;;;2.78;;
29906;SDS011;16776;50.958;10.994;2023-04-28T03:43:35;4.05;;;2.90;;
29906;SDS011;16776;50.958;10.994;2023-04-28T03:46:02;3.22;;;2.90;;
29906;SDS011;16776;50.958;10.994;2023-04-28T03:48:29;3.45;;;2.80;;
29906;SDS011;16776;50.958;10.994;2023-04-28T03:50:55;4.47;;;3.15;;
29906;SDS011;16776;50.958;10.994;2023-04-28T03:53:22;5.10;;;3.30;;
29906;SDS011;16776;50.958;10.994;2023-04-28T03:55:49;3.28;;;2.33;;
29906;SDS011;16776;50.958;10.994;2023-04-28T03:58:17;3.13;;;2.55;;
29906;SDS011;16776;50.958;10.994;2023-04-28T04:00:43;3.15;;;2.53;;
29906;SDS011;16776;50.958;10.994;2023-04-28T04:03:10;3.30;;;2.92;;
29906;SDS011;16776;50.958;10.994;2023-04-28T04:05:38;2.80;;;2.50;;
29906;SDS011;16776;50.958;10.994;2023-04-28T04:08:05;3.28;;;2.20;;
29906;SDS011;16776;50.958;10.994;2023-04-28T04:10:31;4.75;;;2.50;;
29906;SDS011;16776;50.958;10.994;2023-04-28T04:12:58;4.28;;;2.58;;
29906;SDS011;16776;50.958;10.994;2023-04-28T04:15:26;3.20;;;2.42;;
29906;SDS011;16776;50.958;10.994;2023-04-28T04:17:52;4.10;;;2.55;;
29906;SDS011;16776;50.958;10.994;2023-04-28T04:20:19;3.75;;;2.53;;
29906;SDS011;16776;50.958;10.994;2023-04-28T04:22:46;5.25;;;2.38;;
29906;SDS011;16776;50.958;10.994;2023-04-28T04:25:12;4.25;;;2.83;;
29906;SDS011;16776;50.958;10.994;2023-04-28T04:27:39;2.83;;;2.47;;
29906;SDS011;16776;50.958;10.994;2023-04-28T04:30:06;4.47;;;2.03;;
29906;SDS011;16776;50.958;10.994;2023-04-28T04:32:34;3.65;;;1.90;;
29906;SDS011;16776;50.958;10.994;2023-04-28T04:35:01;2.88;;;2.40;;
29906;SDS011;16776;50.958;10.994;2023-04-28T04:37:29;3.60;;;2.90;;
29906;SDS011;16776;50.958;10.994;2023-04-28T04:39:55;4.45;;;3.15;;
29906;SDS011;16776;50.958;10.994;2023-04-28T04:42:22;4.20;;;3.05;;
29906;SDS011;16776;50.958;10.994;2023-04-28T04:44:49;5.10;;;3.20;;
29906;SDS011;16776;50.958;10.994;2023-04-28T04:47:15;4.72;;;3.28;;
29906;SDS011;16776;50.958;10.994;2023-04-28T04:49:44;3.28;;;2.92;;
29906;SDS011;16776;50.958;10.994;2023-04-28T04:52:10;6.03;;;3.47;;
29906;SDS011;16776;50.958;10.994;2023-04-28T04:54:38;3.67;;;2.90;;
29906;SDS011;16776;50.958;10.994;2023-04-28T04:57:05;3.28;;;2.80;;
29906;SDS011;16776;50.958;10.994;2023-04-28T04:59:32;3.22;;;2.92;;
29906;SDS011;16776;50.958;10.994;2023-04-28T05:01:58;3.75;;;2.88;;
29906;SDS011;16776;50.958;10.994;2023-04-28T05:04:25;4.47;;;2.80;;
29906;SDS011;16776;50.958;10.994;2023-04-28T05:06:53;3.60;;;2.78;;
29906;SDS011;16776;50.958;10.994;2023-04-28T05:09:19;4.13;;;3.08;;
29906;SDS011;16776;50.958;10.994;2023-04-28T05:11:47;5.82;;;2.80;;
29906;SDS011;16776;50.958;10.994;2023-04-28T05:14:13;4.15;;;2.95;;
29906;SDS011;16776;50.958;10.994;2023-04-28T05:16:40;8.05;;;3.78;;
29906;SDS011;16776;50.958;10.994;2023-04-28T05:19:07;3.85;;;3.05;;
29906;SDS011;16776;50.958;10.994;2023-04-28T05:21:34;4.80;;;2.88;;
29906;SDS011;16776;50.958;10.994;2023-04-28T05:24:02;6.53;;;3.42;;
29906;SDS011;16776;50.958;10.994;2023-04-28T05:26:29;6.00;;;3.67;;
29906;SDS011;16776;50.958;10.994;2023-04-28T05:28:56;3.63;;;2.70;;
29906;SDS011;16776;50.958;10.994;2023-04-28T05:31:22;4.22;;;3.20;;
29906;SDS011;16776;50.958;10.994;2023-04-28T05:33:49;6.65;;;3.30;;
29906;SDS011;16776;50.958;10.994;2023-04-28T05:36:15;6.57;;;3.55;;
29906;SDS011;16776;50.958;10.994;2023-04-28T05:38:42;4.70;;;3.58;;
29906;SDS011;16776;50.958;10.994;2023-04-28T05:41:10;5.07;;;3.50;;
29906;SDS011;16776;50.958;10.994;2023-04-28T05:43:37;4.30;;;3.13;;
29906;SDS011;16776;50.958;10.994;2023-04-28T05:46:03;4.25;;;2.92;;
29906;SDS011;16776;50.958;10.994;2023-04-28T05:48:30;4.82;;;3.17;;
29906;SDS011;16776;50.958;10.994;2023-04-28T05:50:57;5.60;;;3.63;;
29906;SDS011;16776;50.958;10.994;2023-04-28T05:53:23;5.68;;;3.30;;
29906;SDS011;16776;50.958;10.994;2023-04-28T05:55:50;3.60;;;3.03;;
29906;SDS011;16776;50.958;10.994;2023-04-28T05:58:18;3.58;;;3.10;;
29906;SDS011;16776;50.958;10.994;2023-04-28T06:00:45;3.60;;;3.00;;
29906;SDS011;16776;50.958;10.994;2023-04-28T06:03:11;4.43;;;3.17;;
29906;SDS011;16776;50.958;10.994;2023-04-28T06:05:39;5.75;;;3.55;;
29906;SDS011;16776;50.958;10.994;2023-04-28T06:08:06;3.00;;;2.75;;
29906;SDS011;16776;50.958;10.994;2023-04-28T06:10:32;3.50;;;2.95;;
29906;SDS011;16776;50.958;10.994;2023-04-28T06:12:59;4.80;;;3.28;;
29906;SDS011;16776;50.958;10.994;2023-04-28T06:15:27;3.25;;;2.83;;
29906;SDS011;16776;50.958;10.994;2023-04-28T06:17:54;4.13;;;2.88;;
29906;SDS011;16776;50.958;10.994;2023-04-28T06:20:21;4.65;;;3.13;;
29906;SDS011;16776;50.958;10.994;2023-04-28T06:22:47;5.43;;;3.10;;
29906;SDS011;16776;50.958;10.994;2023-04-28T06:25:14;3.60;;;2.85;;
29906;SDS011;16776;50.958;10.994;2023-04-28T06:27:40;5.45;;;3.22;;
29906;SDS011;16776;50.958;10.994;2023-04-28T06:30:07;4.03;;;3.50;;
29906;SDS011;16776;50.958;10.994;2023-04-28T06:32:35;4.10;;;3.40;;
29906;SDS011;16776;50.958;10.994;2023-04-28T06:35:02;3.92;;;3.33;;
29906;SDS011;16776;50.958;10.994;2023-04-28T06:37:29;5.47;;;3.47;;
29906;SDS011;16776;50.958;10.994;2023-04-28T06:39:56;5.53;;;3.20;;
29906;SDS011;16776;50.958;10.994;2023-04-28T06:42:22;5.05;;;2.97;;
29906;SDS011;16776;50.958;10.994;2023-04-28T06:44:49;3.88;;;3.08;;
29906;SDS011;16776;50.958;10.994;2023-04-28T06:47:16;4.13;;;3.33;;
29906;SDS011;16776;50.958;10.994;2023-04-28T06:49:44;4.03;;;3.25;;
29906;SDS011;16776;50.958;10.994;2023-04-28T06:52:14;4.05;;;3.17;;
29906;SDS011;16776;50.958;10.994;2023-04-28T06:54:40;5.43;;;3.50;;
29906;SDS011;16776;50.958;10.994;2023-04-28T06:57:07;3.88;;;3.45;;
29906;SDS011;16776;50.958;10.994;2023-04-28T06:59:33;4.40;;;3.08;;
29906;SDS011;16776;50.958;10.994;2023-04-28T07:02:00;5.00;;;3.40;;
29906;SDS011;16776;50.958;10.994;2023-04-28T07:04:27;4.78;;;3.40;;
29906;SDS011;16776;50.958;10.994;2023-04-28T07:06:55;3.58;;;2.85;;
29906;SDS011;16776;50.958;10.994;2023-04-28T07:09:22;5.88;;;4.15;;
29906;SDS011;16776;50.958;10.994;2023-04-28T07:11:48;3.53;;;2.78;;
29906;SDS011;16776;50.958;10.994;2023-04-28T07:14:15;3.40;;;3.10;;
29906;SDS011;16776;50.958;10.994;2023-04-28T07:16:41;4.53;;;3.40;;
29906;SDS011;16776;50.958;10.994;2023-04-28T07:19:08;3.70;;;3.10;;
29906;SDS011;16776;50.958;10.994;2023-04-28T07:21:34;3.70;;;3.30;;
29906;SDS011;16776;50.958;10.994;2023-04-28T07:24:02;4.68;;;3.17;;
29906;SDS011;16776;50.958;10.994;2023-04-28T07:26:29;4.43;;;3.30;;
29906;SDS011;16776;50.958;10.994;2023-04-28T07:28:56;4.32;;;3.30;;
29906;SDS011;16776;50.958;10.994;2023-04-28T07:31:22;4.22;;;3.35;;
29906;SDS011;16776;50.958;10.994;2023-04-28T07:33:50;4.05;;;3.55;;
29906;SDS011;16776;50.958;10.994;2023-04-28T07:36:16;4.63;;;3.65;;
29906;SDS011;16776;50.958;10.994;2023-04-28T07:38:43;3.90;;;3.50;;
29906;SDS011;16776;50.958;10.994;2023-04-28T07:41:11;3.75;;;3.33;;
29906;SDS011;16776;50.958;10.994;2023-04-28T07:43:38;5.13;;;3.35;;
29906;SDS011;16776;50.958;10.994;2023-04-28T07:46:05;4.35;;;3.75;;
29906;SDS011;16776;50.958;10.994;2023-04-28T07:48:32;5.68;;;3.35;;
29906;SDS011;16776;50.958;10.994;2023-04-28T07:50:59;4.60;;;3.58;;
29906;SDS011;16776;50.958;10.994;2023-04-28T07:53:25;5.10;;;3.55;;
29906;SDS011;16776;50.958;10.994;2023-04-28T07:55:52;4.38;;;3.08;;
29906;SDS011;16776;50.958;10.994;2023-04-28T07:58:21;3.92;;;3.33;;
29906;SDS011;16776;50.958;10.994;2023-04-28T08:00:47;4.68;;;3.45;;
29906;SDS011;16776;50.958;10.994;2023-04-28T08:03:14;5.57;;;4.13;;
29906;SDS011;16776;50.958;10.994;2023-04-28T08:05:40;3.42;;;3.13;;
29906;SDS011;16776;50.958;10.994;2023-04-28T08:08:09;5.50;;;3.42;;
29906;SDS011;16776;50.958;10.994;2023-04-28T08:10:37;3.72;;;2.80;;
29906;SDS011;16776;50.958;10.994;2023-04-28T08:13:06;3.88;;;3.13;;
29906;SDS011;16776;50.958;10.994;2023-04-28T08:15:36;4.80;;;3.50;;
29906;SDS011;16776;50.958;10.994;2023-04-28T08:18:03;4.70;;;3.42;;
29906;SDS011;16776;50.958;10.994;2023-04-28T08:20:29;6.20;;;3.92;;
29906;SDS011;16776;50.958;10.994;2023-04-28T08:22:56;3.85;;;3.45;;
29906;SDS011;16776;50.958;10.994;2023-04-28T08:25:23;5.85;;;3.88;;
29906;SDS011;16776;50.958;10.994;2023-04-28T08:27:50;4.28;;;3.83;;
29906;SDS011;16776;50.958;10.994;2023-04-28T08:30:17;3.67;;;3.38;;
29906;SDS011;16776;50.958;10.994;2023-04-28T08:32:45;5.40;;;3.90;;
29906;SDS011;16776;50.958;10.994;2023-04-28T08:35:11;4.65;;;3.13;;
29906;SDS011;16776;50.958;10.994;2023-04-28T08:37:39;3.83;;;3.00;;
29906;SDS011;16776;50.958;10.994;2023-04-28T08:40:06;4.88;;;3.40;;
29906;SDS011;16776;50.958;10.994;2023-04-28T08:42:34;3.58;;;3.28;;
29906;SDS011;16776;50.958;10.994;2023-04-28T08:45:02;3.85;;;3.15;;
29906;SDS011;16776;50.958;10.994;2023-04-28T08:47:32;5.90;;;4.30;;
29906;SDS011;16776;50.958;10.994;2023-04-28T08:50:06;5.80;;;3.90;;
29906;SDS011;16776;50.958;10.994;2023-04-28T08:52:33;3.67;;;3.38;;
29906;SDS011;16776;50.958;10.994;2023-04-28T08:55:04;5.57;;;3.58;;
29906;SDS011;16776;50.958;10.994;2023-04-28T08:57:35;7.30;;;4.10;;
29906;SDS011;16776;50.958;10.994;2023-04-28T09:00:04;5.00;;;3.60;;
29906;SDS011;16776;50.958;10.994;2023-04-28T09:02:32;5.20;;;4.13;;
29906;SDS011;16776;50.958;10.994;2023-04-28T09:05:01;5.50;;;4.05;;
29906;SDS011;16776;50.958;10.994;2023-04-28T09:07:29;6.40;;;4.05;;
29906;SDS011;16776;50.958;10.994;2023-04-28T09:10:15;7.15;;;4.05;;
29906;SDS011;16776;50.958;10.994;2023-04-28T09:12:43;5.30;;;4.13;;
29906;SDS011;16776;50.958;10.994;2023-04-28T09:15:10;6.30;;;4.13;;
29906;SDS011;16776;50.958;10.994;2023-04-28T09:17:51;4.45;;;4.03;;
29906;SDS011;16776;50.958;10.994;2023-04-28T09:20:20;5.88;;;4.25;;
29906;SDS011;16776;50.958;10.994;2023-04-28T09:22:49;5.22;;;3.78;;
29906;SDS011;16776;50.958;10.994;2023-04-28T09:25:17;4.72;;;4.25;;
29906;SDS011;16776;50.958;10.994;2023-04-28T09:27:45;4.60;;;4.07;;
29906;SDS011;16776;50.958;10.994;2023-04-28T09:30:12;5.55;;;3.70;;
29906;SDS011;16776;50.958;10.994;2023-04-28T09:32:39;5.95;;;4.60;;
29906;SDS011;16776;50.958;10.994;2023-04-28T09:35:06;4.32;;;3.92;;
29906;SDS011;16776;50.958;10.994;2023-04-28T09:37:33;5.63;;;4.68;;
29906;SDS011;16776;50.958;10.994;2023-04-28T09:40:06;4.22;;;3.80;;
29906;SDS011;16776;50.958;10.994;2023-04-28T09:42:36;4.65;;;3.72;;
29906;SDS011;16776;50.958;10.994;2023-04-28T09:45:04;5.25;;;4.20;;
29906;SDS011;16776;50.958;10.994;2023-04-28T09:47:32;8.13;;;4.18;;
29906;SDS011;16776;50.958;10.994;2023-04-28T09:50:00;4.10;;;3.70;;
29906;SDS011;16776;50.958;10.994;2023-04-28T09:52:28;4.13;;;3.72;;
29906;SDS011;16776;50.958;10.994;2023-04-28T09:54:55;5.00;;;3.55;;
29906;SDS011;16776;50.958;10.994;2023-04-28T09:57:23;5.53;;;4.20;;
29906;SDS011;16776;50.958;10.994;2023-04-28T09:59:50;5.20;;;3.92;;
29906;SDS011;16776;50.958;10.994;2023-04-28T10:02:18;5.60;;;3.65;;
29906;SDS011;16776;50.958;10.994;2023-04-28T10:04:47;8.85;;;4.00;;
29906;SDS011;16776;50.958;10.994;2023-04-28T10:07:14;7.38;;;4.55;;
29906;SDS011;16776;50.958;10.994;2023-04-28T10:09:42;5.43;;;3.90;;
29906;SDS011;16776;50.958;10.994;2023-04-28T10:12:11;5.68;;;3.80;;
29906;SDS011;16776;50.958;10.994;2023-04-28T10:14:40;4.93;;;3.45;;
29906;SDS011;16776;50.958;10.994;2023-04-28T10:17:08;5.82;;;2.92;;
29906;SDS011;16776;50.958;10.994;2023-04-28T10:19:36;3.58;;;3.22;;
29906;SDS011;16776;50.958;10.994;2023-04-28T10:22:06;2.67;;;2.42;;
29906;SDS011;16776;50.958;10.994;2023-04-28T10:24:59;5.95;;;2.90;;
29906;SDS011;16776;50.958;10.994;2023-04-28T10:27:38;2.85;;;2.42;;
29906;SDS011;16776;50.958;10.994;2023-04-28T10:30:12;2.92;;;2.33;;
29906;SDS011;16776;50.958;10.994;2023-04-28T10:32:41;5.18;;;3.20;;
29906;SDS011;16776;50.958;10.994;2023-04-28T10:38:08;3.08;;;2.38;;
29906;SDS011;16776;50.958;10.994;2023-04-28T10:40:37;4.70;;;2.50;;
29906;SDS011;16776;50.958;10.994;2023-04-28T10:43:04;2.55;;;2.35;;
29906;SDS011;16776;50.958;10.994;2023-04-28T10:51:27;4.57;;;3.40;;
29906;SDS011;16776;50.958;10.994;2023-04-28T10:54:13;4.75;;;3.20;;
29906;SDS011;16776;50.958;10.994;2023-04-28T10:59:43;2.72;;;2.13;;
29906;SDS011;16776;50.958;10.994;2023-04-28T11:05:19;2.35;;;2.05;;
29906;SDS011;16776;50.958;10.994;2023-04-28T11:11:10;2.35;;;2.00;;
29906;SDS011;16776;50.958;10.994;2023-04-28T11:13:41;2.40;;;2.20;;
29906;SDS011;16776;50.958;10.994;2023-04-28T11:16:11;4.43;;;2.47;;
29906;SDS011;16776;50.958;10.994;2023-04-28T11:18:48;2.35;;;2.15;;
29906;SDS011;16776;50.958;10.994;2023-04-28T11:21:17;2.42;;;2.15;;
29906;SDS011;16776;50.958;10.994;2023-04-28T11:23:43;2.38;;;2.17;;
29906;SDS011;16776;50.958;10.994;2023-04-28T11:26:10;3.00;;;2.65;;
29906;SDS011;16776;50.958;10.994;2023-04-28T11:28:45;2.72;;;2.13;;
29906;SDS011;16776;50.958;10.994;2023-04-28T11:31:13;2.33;;;2.13;;
29906;SDS011;16776;50.958;10.994;2023-04-28T11:33:43;1.80;;;1.70;;
29906;SDS011;16776;50.958;10.994;2023-04-28T11:36:22;2.20;;;1.98;;
29906;SDS011;16776;50.958;10.994;2023-04-28T11:38:53;2.28;;;1.88;;
29906;SDS011;16776;50.958;10.994;2023-04-28T11:41:20;1.92;;;1.75;;
29906;SDS011;16776;50.958;10.994;2023-04-28T11:43:47;3.65;;;1.88;;
29906;SDS011;16776;50.958;10.994;2023-04-28T11:46:17;2.53;;;2.08;;
29906;SDS011;16776;50.958;10.994;2023-04-28T11:48:45;3.90;;;2.53;;
29906;SDS011;16776;50.958;10.994;2023-04-28T11:54:04;3.40;;;2.50;;
29906;SDS011;16776;50.958;10.994;2023-04-28T11:56:37;2.38;;;2.17;;
29906;SDS011;16776;50.958;10.994;2023-04-28T11:59:07;3.28;;;2.08;;
29906;SDS011;16776;50.958;10.994;2023-04-28T12:01:43;2.72;;;2.50;;
29906;SDS011;16776;50.958;10.994;2023-04-28T12:04:10;2.35;;;2.15;;
29906;SDS011;16776;50.958;10.994;2023-04-28T12:06:39;2.70;;;2.50;;
29906;SDS011;16776;50.958;10.994;2023-04-28T12:09:15;3.58;;;2.50;;
29906;SDS011;16776;50.958;10.994;2023-04-28T12:11:51;2.90;;;2.70;;
29906;SDS011;16776;50.958;10.994;2023-04-28T12:14:19;2.78;;;2.47;;
29906;SDS011;16776;50.958;10.994;2023-04-28T12:16:45;3.28;;;2.50;;
29906;SDS011;16776;50.958;10.994;2023-04-28T12:19:13;3.15;;;1.90;;
29906;SDS011;16776;50.958;10.994;2023-04-28T12:21:41;2.55;;;2.35;;
29906;SDS011;16776;50.958;10.994;2023-04-28T12:24:19;3.17;;;2.25;;
29906;SDS011;16776;50.958;10.994;2023-04-28T12:26:46;2.85;;;2.65;;
29906;SDS011;16776;50.958;10.994;2023-04-28T12:32:03;3.30;;;2.42;;
29906;SDS011;16776;50.958;10.994;2023-04-28T12:34:31;3.15;;;2.10;;
29906;SDS011;16776;50.958;10.994;2023-04-28T12:36:59;2.22;;;2.03;;
29906;SDS011;16776;50.958;10.994;2023-04-28T12:39:27;1.83;;;1.73;;
29906;SDS011;16776;50.958;10.994;2023-04-28T12:41:53;2.67;;;1.73;;
29906;SDS011;16776;50.958;10.994;2023-04-28T12:44:20;1.50;;;1.40;;
29906;SDS011;16776;50.958;10.994;2023-04-28T12:46:47;1.60;;;1.50;;
29906;SDS011;16776;50.958;10.994;2023-04-28T12:49:14;2.13;;;1.55;;
29906;SDS011;16776;50.958;10.994;2023-04-28T12:51:40;2.17;;;1.98;;
29906;SDS011;16776;50.958;10.994;2023-04-28T12:54:08;2.70;;;1.67;;
29906;SDS011;16776;50.958;10.994;2023-04-28T12:56:35;1.55;;;1.45;;
29906;SDS011;16776;50.958;10.994;2023-04-28T12:59:01;1.30;;;1.20;;
29906;SDS011;16776;50.958;10.994;2023-04-28T13:01:28;1.40;;;1.30;;
29906;SDS011;16776;50.958;10.994;2023-04-28T13:03:54;2.33;;;1.55;;
29906;SDS011;16776;50.958;10.994;2023-04-28T13:06:21;1.40;;;1.30;;
29906;SDS011;16776;50.958;10.994;2023-04-28T13:08:48;1.60;;;1.50;;
29906;SDS011;16776;50.958;10.994;2023-04-28T13:11:15;1.30;;;1.30;;
29906;SDS011;16776;50.958;10.994;2023-04-28T13:13:42;2.20;;;1.60;;
29906;SDS011;16776;50.958;10.994;2023-04-28T13:16:09;1.55;;;1.23;;
29906;SDS011;16776;50.958;10.994;2023-04-28T13:18:37;2.15;;;1.95;;
29906;SDS011;16776;50.958;10.994;2023-04-28T13:21:03;2.00;;;1.90;;
29906;SDS011;16776;50.958;10.994;2023-04-28T13:23:30;2.35;;;2.00;;
29906;SDS011;16776;50.958;10.994;2023-04-28T13:25:57;2.33;;;2.08;;
29906;SDS011;16776;50.958;10.994;2023-04-28T13:28:25;2.08;;;1.88;;
29906;SDS011;16776;50.958;10.994;2023-04-28T13:30:53;2.95;;;2.03;;
29906;SDS011;16776;50.958;10.994;2023-04-28T13:33:19;1.70;;;1.60;;
29906;SDS011;16776;50.958;10.994;2023-04-28T13:35:46;2.38;;;2.17;;
29906;SDS011;16776;50.958;10.994;2023-04-28T13:38:12;2.10;;;2.00;;
29906;SDS011;16776;50.958;10.994;2023-04-28T13:40:39;1.77;;;1.67;;
29906;SDS011;16776;50.958;10.994;2023-04-28T13:43:06;1.70;;;1.60;;
29906;SDS011;16776;50.958;10.994;2023-04-28T13:45:34;1.95;;;1.50;;
29906;SDS011;16776;50.958;10.994;2023-04-28T13:48:00;2.45;;;1.67;;
29906;SDS011;16776;50.958;10.994;2023-04-28T13:50:28;2.05;;;1.67;;
29906;SDS011;16776;50.958;10.994;2023-04-28T13:52:54;2.22;;;2.03;;
29906;SDS011;16776;50.958;10.994;2023-04-28T13:55:21;1.88;;;1.77;;
29906;SDS011;16776;50.958;10.994;2023-04-28T13:57:51;1.33;;;1.23;;
29906;SDS011;16776;50.958;10.994;2023-04-28T14:00:18;1.13;;;1.05;;
29906;SDS011;16776;50.958;10.994;2023-04-28T14:02:46;1.05;;;0.90;;
29906;SDS011;16776;50.958;10.994;2023-04-28T14:05:13;0.90;;;0.90;;
29906;SDS011;16776;50.958;10.994;2023-04-28T14:07:40;0.93;;;0.93;;
29906;SDS011;16776;50.958;10.994;2023-04-28T14:10:07;0.73;;;0.73;;
29906;SDS011;16776;50.958;10.994;2023-04-28T14:12:35;1.23;;;1.13;;
29906;SDS011;16776;50.958;10.994;2023-04-28T14:15:02;0.85;;;0.85;;
29906;SDS011;16776;50.958;10.994;2023-04-28T14:17:29;0.75;;;0.75;;
29906;SDS011;16776;50.958;10.994;2023-04-28T14:19:57;1.00;;;0.82;;
29906;SDS011;16776;50.958;10.994;2023-04-28T14:22:25;0.90;;;0.88;;
29906;SDS011;16776;50.958;10.994;2023-04-28T14:24:51;0.77;;;0.77;;
29906;SDS011;16776;50.958;10.994;2023-04-28T14:27:18;1.00;;;0.93;;
29906;SDS011;16776;50.958;10.994;2023-04-28T14:29:46;0.90;;;0.90;;
29906;SDS011;16776;50.958;10.994;2023-04-28T14:32:13;0.90;;;0.80;;
29906;SDS011;16776;50.958;10.994;2023-04-28T14:34:40;0.80;;;0.80;;
29906;SDS011;16776;50.958;10.994;2023-04-28T14:37:08;1.05;;;1.00;;
29906;SDS011;16776;50.958;10.994;2023-04-28T14:39:35;1.33;;;0.93;;
29906;SDS011;16776;50.958;10.994;2023-04-28T14:42:03;1.10;;;1.00;;
29906;SDS011;16776;50.958;10.994;2023-04-28T14:44:30;0.95;;;0.88;;
29906;SDS011;16776;50.958;10.994;2023-04-28T14:46:57;0.80;;;0.70;;
29906;SDS011;16776;50.958;10.994;2023-04-28T14:49:24;0.70;;;0.70;;
29906;SDS011;16776;50.958;10.994;2023-04-28T14:51:51;1.13;;;1.00;;
29906;SDS011;16776;50.958;10.994;2023-04-28T14:54:20;0.93;;;0.93;;
29906;SDS011;16776;50.958;10.994;2023-04-28T14:56:47;1.17;;;1.08;;
29906;SDS011;16776;50.958;10.994;2023-04-28T14:59:14;0.90;;;0.90;;